Nearby METAR Reports

 

KOXC - Oxford/Waterbury, Connecticut, USA
Distance from station: SE 8mi, 12km
Updated: Wed, 22-Oct-2014 3:35am EDT
Overcast
Overcast
 Wind from NE
Wind: NE 13 mph , 20 km/h, Gust: 17 mph , 28 km/h
Temperature: 54°F , 12°C
Dew Point: 46°F , 8°C
Humidity: 77%
Barometer: 29.92 inHg , 1013.2 hPa
Clouds: Overcast
Visibility: 10 miles , 16 km
Cloud details: Overcast 800 ft
2014/10/22 07:35 KOXC 220735Z 05011G15KT 10SM OVC008 12/08 A2992 RMK AO1
KDXR - Danbury, Connecticut, USA
Distance from station: SW 19mi, 30km
Updated: Wed, 22-Oct-2014 2:53am EDT
Overcast
Overcast
 Wind from ENE
Wind: ENE 7 mph , 11 km/h
Temperature: 55°F , 13°C
Barometer: 29.93 inHg , 1013.5 hPa
Clouds: Overcast
Visibility: 10 miles , 16 km
Cloud details: Overcast 1300 ft
2014/10/22 06:53 KDXR 220653Z AUTO 06006KT 10SM OVC013 13/ A2993 RMK AO2 RAE09 SLP133 P0001 T0128 $
 
KMMK - Meriden, Connecticut, USA
Distance from station: E 20mi, 33km
Updated: Wed, 22-Oct-2014 3:10am EDT
Overcast
Overcast
 Wind from NNE
Wind: NNE 6 mph , 9 km/h
Temperature: 54°F , 12°C
Dew Point: 50°F , 10°C
Humidity: 88%
Barometer: 29.93 inHg , 1013.5 hPa
Clouds: Overcast
Visibility: 10 miles , 16 km
Cloud details: Mostly cloudy 1100 ft
Overcast 1800 ft
2014/10/22 07:10 KMMK 220710Z AUTO 02005KT 10SM BKN011 OVC018 12/10 A2993 RMK AO2 T01220100 TSNO
KBDR - Bridgeport, Connecticut, USA
Distance from station: S 27mi, 44km
Updated: Wed, 22-Oct-2014 3:52am EDT
Overcast
Overcast
 Wind from NNE
Wind: NNE 12 mph , 19 km/h
Temperature: 55°F , 13°C
Dew Point: 52°F , 11°C
Humidity: 88%
Barometer: 29.91 inHg , 1012.9 hPa
Clouds: Overcast
Visibility: 10 miles , 16 km
Cloud details: Mostly cloudy 2100 ft
Overcast 2800 ft
2014/10/22 07:52 KBDR 220752Z AUTO 03010KT 10SM BKN021 OVC028 13/11 A2991 RMK AO2 SLP127 T01330111
 
KHVN - New Haven/Tweed, Connecticut, USA
Distance from station: SE 27mi, 44km
Updated: Wed, 22-Oct-2014 3:44am EDT
Mostly cloudy
Mostly cloudy
 Wind from NNE
Wind: NNE 10 mph , 17 km/h
Temperature: 55°F , 13°C
Dew Point: 52°F , 11°C
Humidity: 88%
Barometer: 29.91 inHg , 1012.9 hPa
Clouds: Mostly cloudy
Visibility: 10 miles , 16 km
Cloud details: Mostly cloudy 2100 ft
Mostly cloudy 2800 ft
2014/10/22 07:44 KHVN 220744Z AUTO 02009KT 10SM BKN021 BKN028 13/11 A2991 RMK AO2 T01330111
KHFD - Hartford/Brainar, Connecticut, USA
Distance from station: ENE 32mi, 52km
Updated: Wed, 22-Oct-2014 3:37am EDT
Overcast
Overcast
 Wind from varies
Wind: varies 7 mph , 11 km/h, Gust: 17 mph , 28 km/h
Temperature: 54°F , 12°C
Dew Point: 50°F , 10°C
Humidity: 88%
Barometer: 29.94 inHg , 1013.9 hPa
Clouds: Overcast
Visibility: 10 miles , 16 km
Cloud details: Overcast 1500 ft
2014/10/22 07:37 KHFD 220737Z AUTO VRB06G15KT 10SM OVC015 12/10 A2994 RMK AO2 T01220100
 
KPOU - Poughkeepsie, New York, USA
Distance from station: W 35mi, 56km
Updated: Wed, 22-Oct-2014 2:53am EDT
Overcast
Overcast
 Wind from N
Wind: N 9 mph , 15 km/h
Temperature: 52°F , 11°C
Dew Point: 50°F , 10°C
Humidity: 94%
Barometer: 29.94 inHg , 1013.9 hPa
Clouds: Overcast
Visibility: 9 miles , 14 km
Cloud details: Mostly cloudy 800 ft
Overcast 2000 ft
2014/10/22 06:53 KPOU 220653Z AUTO 01008KT 9SM BKN008 OVC020 11/10 A2994 RMK AO2 SLP135 T01110100 TSNO
KBDL - Windsor Locks, Connecticut, USA
Distance from station: NE 38mi, 62km
Updated: Wed, 22-Oct-2014 3:51am EDT
Overcast
Overcast
 Wind from N
Wind: N 13 mph , 20 km/h
Temperature: 54°F , 12°C
Dew Point: 48°F , 9°C
Humidity: 82%
Barometer: 29.95 inHg , 1014.2 hPa
Clouds: Overcast
Visibility: 10 miles , 16 km
Cloud details: Mostly cloudy 1000 ft
Overcast 2100 ft
2014/10/22 07:51 KBDL 220751Z 01011KT 10SM BKN010 OVC021 12/09 A2995 RMK AO2 SLP143 T01220089
 
KSNC - Chester, Connecticut, USA
Distance from station: ESE 39mi, 63km
Updated: Wed, 22-Oct-2014 3:15am EDT
Overcast
Overcast
 Wind from NE
Wind: NE 6 mph , 9 km/h
Temperature: 55°F , 13°C
Dew Point: 54°F , 12°C
Humidity: 94%
Barometer: 29.92 inHg , 1013.2 hPa
Clouds: Overcast
Visibility: 10 miles , 16 km
Cloud details: Overcast 1000 ft
2014/10/22 07:15 KSNC 220715Z AUTO 05005KT 10SM OVC010 13/12 A2992 RMK AO2
KHPN - White Plains, New York, USA
Distance from station: SW 42mi, 67km
Updated: Wed, 22-Oct-2014 2:56am EDT
Mostly cloudy
Mostly cloudy
 Wind from varies
Wind: varies 7 mph , 11 km/h
Temperature: 55°F , 13°C
Dew Point: 52°F , 11°C
Humidity: 88%
Barometer: 29.89 inHg , 1012.2 hPa
Clouds: Mostly cloudy
Visibility: 10 miles , 16 km
Cloud details: Partly cloudy 2000 ft
Mostly cloudy 4000 ft
2014/10/22 06:56 KHPN 220656Z VRB06KT 10SM SCT020 BKN040 13/11 A2989 RMK AO2 SLP120 T01330106
 
KSWF - Newburgh/Stewart, New York, USA
Distance from station: W 45mi, 72km
Updated: Wed, 22-Oct-2014 3:45am EDT
Overcast
Overcast
 Wind from varies
Wind: varies 3 mph , 6 km/h
Temperature: 52°F , 11°C
Dew Point: 52°F , 11°C
Humidity: 100%
Barometer: 29.93 inHg , 1013.5 hPa
Clouds: Overcast
Visibility: 7 miles , 11 km
Cloud details: Overcast 900 ft
2014/10/22 07:45 KSWF 220745Z VRB03KT 7SM OVC009 11/11 A2993
KBAF - Westfield, Massachusetts, USA
Distance from station: NNE 50mi, 80km
Updated: Wed, 22-Oct-2014 2:53am EDT
Overcast
Overcast
 Wind from N
Wind: N 13 mph , 20 km/h
Temperature: 54°F , 12°C
Dew Point: 48°F , 9°C
Humidity: 82%
Barometer: 29.97 inHg , 1014.9 hPa
Clouds: Overcast
Visibility: 10 miles , 16 km
Cloud details: Overcast 1000 ft
2014/10/22 06:53 KBAF 220653Z 01011KT 10SM OVC010 12/09 A2997 RMK AO2 SLP149 T01170089